sensor_id;sensor_type;location;lat;lon;timestamp;P1;durP1;ratioP1;P2;durP2;ratioP2
9280;SDS011;4679;47.966;7.958;2024-03-23T07:27:43;0.30;;;0.20;;
9280;SDS011;4679;47.966;7.958;2024-03-23T07:29:45;0.10;;;0.10;;
9280;SDS011;4679;47.966;7.958;2024-03-23T07:31:45;0.10;;;0.10;;
9280;SDS011;4679;47.966;7.958;2024-03-23T07:33:47;0.10;;;0.10;;
9280;SDS011;4679;47.966;7.958;2024-03-23T07:35:48;0.10;;;0.10;;
9280;SDS011;4679;47.966;7.958;2024-03-23T07:37:50;0.10;;;0.10;;
9280;SDS011;4679;47.966;7.958;2024-03-23T07:39:51;0.10;;;0.10;;
9280;SDS011;4679;47.966;7.958;2024-03-23T07:41:52;0.10;;;0.10;;
9280;SDS011;4679;47.966;7.958;2024-03-23T07:43:54;0.93;;;0.20;;
9280;SDS011;4679;47.966;7.958;2024-03-23T07:45:56;0.13;;;0.00;;
9280;SDS011;4679;47.966;7.958;2024-03-23T07:47:56;0.30;;;0.00;;
9280;SDS011;4679;47.966;7.958;2024-03-23T07:49:58;0.40;;;0.10;;
9280;SDS011;4679;47.966;7.958;2024-03-23T07:51:59;1.07;;;0.30;;
9280;SDS011;4679;47.966;7.958;2024-03-23T07:54:00;0.10;;;0.10;;
9280;SDS011;4679;47.966;7.958;2024-03-23T07:56:01;1.27;;;0.20;;
9280;SDS011;4679;47.966;7.958;2024-03-23T07:58:04;0.10;;;0.10;;
9280;SDS011;4679;47.966;7.958;2024-03-23T08:00:08;0.20;;;0.13;;
9280;SDS011;4679;47.966;7.958;2024-03-23T08:02:10;0.10;;;0.10;;
9280;SDS011;4679;47.966;7.958;2024-03-23T08:04:11;0.10;;;0.10;;
9280;SDS011;4679;47.966;7.958;2024-03-23T08:06:13;0.97;;;0.17;;
9280;SDS011;4679;47.966;7.958;2024-03-23T08:08:15;0.87;;;0.20;;
9280;SDS011;4679;47.966;7.958;2024-03-23T08:10:16;0.40;;;0.20;;
9280;SDS011;4679;47.966;7.958;2024-03-23T08:12:18;0.30;;;0.10;;
9280;SDS011;4679;47.966;7.958;2024-03-23T08:14:19;2.27;;;0.20;;
9280;SDS011;4679;47.966;7.958;2024-03-23T08:16:22;1.37;;;0.20;;
9280;SDS011;4679;47.966;7.958;2024-03-23T08:18:23;0.20;;;0.20;;
9280;SDS011;4679;47.966;7.958;2024-03-23T08:20:24;0.40;;;0.30;;
9280;SDS011;4679;47.966;7.958;2024-03-23T08:22:25;0.50;;;0.30;;
9280;SDS011;4679;47.966;7.958;2024-03-23T08:24:26;0.47;;;0.30;;
9280;SDS011;4679;47.966;7.958;2024-03-23T08:26:27;0.20;;;0.20;;
9280;SDS011;4679;47.966;7.958;2024-03-23T08:28:29;1.17;;;0.40;;
9280;SDS011;4679;47.966;7.958;2024-03-23T08:30:30;5.60;;;0.40;;
9280;SDS011;4679;47.966;7.958;2024-03-23T08:32:33;3.07;;;0.60;;
9280;SDS011;4679;47.966;7.958;2024-03-23T08:34:33;1.00;;;0.47;;
9280;SDS011;4679;47.966;7.958;2024-03-23T08:36:35;0.90;;;0.40;;
9280;SDS011;4679;47.966;7.958;2024-03-23T08:38:35;1.43;;;0.40;;
9280;SDS011;4679;47.966;7.958;2024-03-23T08:40:37;1.70;;;0.40;;
9280;SDS011;4679;47.966;7.958;2024-03-23T08:42:37;0.57;;;0.30;;
9280;SDS011;4679;47.966;7.958;2024-03-23T08:44:39;2.97;;;1.17;;
9280;SDS011;4679;47.966;7.958;2024-03-23T08:46:39;1.03;;;0.53;;
9280;SDS011;4679;47.966;7.958;2024-03-23T08:48:43;1.17;;;0.80;;
9280;SDS011;4679;47.966;7.958;2024-03-23T08:50:45;2.03;;;0.70;;
9280;SDS011;4679;47.966;7.958;2024-03-23T08:52:47;1.63;;;0.70;;
9280;SDS011;4679;47.966;7.958;2024-03-23T08:54:47;3.27;;;1.00;;
9280;SDS011;4679;47.966;7.958;2024-03-23T08:56:49;3.67;;;0.90;;
9280;SDS011;4679;47.966;7.958;2024-03-23T08:58:49;2.47;;;0.70;;
9280;SDS011;4679;47.966;7.958;2024-03-23T09:00:51;1.30;;;0.80;;
9280;SDS011;4679;47.966;7.958;2024-03-23T09:02:52;2.10;;;0.90;;
9280;SDS011;4679;47.966;7.958;2024-03-23T09:04:55;1.30;;;0.90;;
9280;SDS011;4679;47.966;7.958;2024-03-23T09:06:55;3.93;;;1.40;;
9280;SDS011;4679;47.966;7.958;2024-03-23T09:08:59;2.67;;;0.90;;
9280;SDS011;4679;47.966;7.958;2024-03-23T09:11:03;4.60;;;0.90;;
9280;SDS011;4679;47.966;7.958;2024-03-23T09:13:06;3.10;;;0.90;;
9280;SDS011;4679;47.966;7.958;2024-03-23T09:15:07;1.63;;;0.90;;
9280;SDS011;4679;47.966;7.958;2024-03-23T09:17:08;3.80;;;0.90;;
9280;SDS011;4679;47.966;7.958;2024-03-23T09:19:10;8.13;;;1.00;;
9280;SDS011;4679;47.966;7.958;2024-03-23T09:21:13;1.67;;;0.90;;
9280;SDS011;4679;47.966;7.958;2024-03-23T09:23:14;1.43;;;0.90;;
9280;SDS011;4679;47.966;7.958;2024-03-23T09:25:16;2.50;;;0.97;;
9280;SDS011;4679;47.966;7.958;2024-03-23T09:27:17;2.57;;;1.00;;
9280;SDS011;4679;47.966;7.958;2024-03-23T09:29:18;3.90;;;1.03;;
9280;SDS011;4679;47.966;7.958;2024-03-23T09:31:19;3.00;;;1.33;;
9280;SDS011;4679;47.966;7.958;2024-03-23T09:33:22;3.27;;;0.80;;
9280;SDS011;4679;47.966;7.958;2024-03-23T09:35:22;4.43;;;1.10;;
9280;SDS011;4679;47.966;7.958;2024-03-23T09:37:25;1.43;;;0.90;;
9280;SDS011;4679;47.966;7.958;2024-03-23T09:39:26;6.23;;;1.07;;
9280;SDS011;4679;47.966;7.958;2024-03-23T09:41:27;2.17;;;0.80;;
9280;SDS011;4679;47.966;7.958;2024-03-23T09:43:28;1.70;;;0.90;;
9280;SDS011;4679;47.966;7.958;2024-03-23T09:48:45;1.97;;;0.90;;
9280;SDS011;4679;47.966;7.958;2024-03-23T09:50:47;2.07;;;0.77;;
9280;SDS011;4679;47.966;7.958;2024-03-23T09:52:50;3.70;;;0.80;;
9280;SDS011;4679;47.966;7.958;2024-03-23T09:54:51;4.10;;;0.80;;
9280;SDS011;4679;47.966;7.958;2024-03-23T09:56:52;3.80;;;1.10;;
9280;SDS011;4679;47.966;7.958;2024-03-23T09:58:59;2.53;;;0.77;;
9280;SDS011;4679;47.966;7.958;2024-03-23T10:01:01;4.47;;;0.97;;
9280;SDS011;4679;47.966;7.958;2024-03-23T10:03:03;3.93;;;0.80;;
9280;SDS011;4679;47.966;7.958;2024-03-23T10:05:13;1.87;;;0.60;;
9280;SDS011;4679;47.966;7.958;2024-03-23T10:07:21;1.70;;;0.70;;
9280;SDS011;4679;47.966;7.958;2024-03-23T10:09:23;1.53;;;0.70;;
9280;SDS011;4679;47.966;7.958;2024-03-23T10:11:27;3.33;;;0.70;;
9280;SDS011;4679;47.966;7.958;2024-03-23T10:13:29;1.53;;;1.27;;
9280;SDS011;4679;47.966;7.958;2024-03-23T10:15:33;1.67;;;0.60;;
9280;SDS011;4679;47.966;7.958;2024-03-23T10:17:34;5.13;;;1.23;;
9280;SDS011;4679;47.966;7.958;2024-03-23T10:19:38;1.57;;;0.63;;
9280;SDS011;4679;47.966;7.958;2024-03-23T10:21:38;2.07;;;0.50;;
9280;SDS011;4679;47.966;7.958;2024-03-23T10:23:40;1.80;;;0.60;;
9280;SDS011;4679;47.966;7.958;2024-03-23T10:25:43;0.63;;;0.50;;
9280;SDS011;4679;47.966;7.958;2024-03-23T10:27:45;2.00;;;0.50;;
9280;SDS011;4679;47.966;7.958;2024-03-23T10:29:59;3.47;;;0.90;;
9280;SDS011;4679;47.966;7.958;2024-03-23T10:32:09;2.80;;;0.50;;
9280;SDS011;4679;47.966;7.958;2024-03-23T10:34:12;1.80;;;0.50;;
9280;SDS011;4679;47.966;7.958;2024-03-23T10:36:14;3.10;;;0.70;;
9280;SDS011;4679;47.966;7.958;2024-03-23T10:38:14;4.13;;;1.47;;
9280;SDS011;4679;47.966;7.958;2024-03-23T10:40:16;4.37;;;1.10;;
9280;SDS011;4679;47.966;7.958;2024-03-23T10:42:19;2.30;;;0.90;;
9280;SDS011;4679;47.966;7.958;2024-03-23T10:44:22;3.97;;;0.70;;
9280;SDS011;4679;47.966;7.958;2024-03-23T10:46:26;3.93;;;1.20;;
9280;SDS011;4679;47.966;7.958;2024-03-23T10:48:28;3.60;;;0.97;;
9280;SDS011;4679;47.966;7.958;2024-03-23T10:50:29;1.60;;;1.33;;
9280;SDS011;4679;47.966;7.958;2024-03-23T10:52:31;0.80;;;0.67;;
9280;SDS011;4679;47.966;7.958;2024-03-23T10:54:32;2.50;;;0.87;;
9280;SDS011;4679;47.966;7.958;2024-03-23T10:56:34;0.70;;;0.50;;
9280;SDS011;4679;47.966;7.958;2024-03-23T10:58:39;3.77;;;0.70;;
9280;SDS011;4679;47.966;7.958;2024-03-23T11:00:42;1.80;;;0.50;;
9280;SDS011;4679;47.966;7.958;2024-03-23T11:02:43;0.67;;;0.50;;
9280;SDS011;4679;47.966;7.958;2024-03-23T11:04:44;2.63;;;0.50;;
9280;SDS011;4679;47.966;7.958;2024-03-23T11:06:48;1.10;;;0.50;;
9280;SDS011;4679;47.966;7.958;2024-03-23T11:08:49;1.47;;;0.60;;
9280;SDS011;4679;47.966;7.958;2024-03-23T11:10:50;0.70;;;0.23;;
9280;SDS011;4679;47.966;7.958;2024-03-23T11:12:52;0.90;;;0.43;;
9280;SDS011;4679;47.966;7.958;2024-03-23T11:14:55;1.63;;;0.60;;
9280;SDS011;4679;47.966;7.958;2024-03-23T11:17:08;1.80;;;1.60;;
9280;SDS011;4679;47.966;7.958;2024-03-23T11:21:53;0.50;;;0.33;;
9280;SDS011;4679;47.966;7.958;2024-03-23T11:23:55;1.50;;;0.40;;
9280;SDS011;4679;47.966;7.958;2024-03-23T11:25:55;2.90;;;1.07;;
9280;SDS011;4679;47.966;7.958;2024-03-23T11:27:57;1.73;;;0.50;;
9280;SDS011;4679;47.966;7.958;2024-03-23T11:30:11;2.67;;;0.50;;
9280;SDS011;4679;47.966;7.958;2024-03-23T11:32:15;0.87;;;0.47;;
9280;SDS011;4679;47.966;7.958;2024-03-23T11:34:17;1.50;;;0.40;;
9280;SDS011;4679;47.966;7.958;2024-03-23T11:36:19;1.67;;;0.70;;
9280;SDS011;4679;47.966;7.958;2024-03-23T11:38:19;4.60;;;0.70;;
9280;SDS011;4679;47.966;7.958;2024-03-23T11:40:21;1.50;;;0.40;;
9280;SDS011;4679;47.966;7.958;2024-03-23T11:42:22;2.17;;;0.73;;
9280;SDS011;4679;47.966;7.958;2024-03-23T11:44:25;2.70;;;0.43;;
9280;SDS011;4679;47.966;7.958;2024-03-23T11:46:27;2.93;;;0.67;;
9280;SDS011;4679;47.966;7.958;2024-03-23T11:48:29;1.13;;;0.40;;
9280;SDS011;4679;47.966;7.958;2024-03-23T11:50:30;1.13;;;0.43;;
9280;SDS011;4679;47.966;7.958;2024-03-23T11:52:30;1.13;;;0.40;;
9280;SDS011;4679;47.966;7.958;2024-03-23T11:54:33;0.60;;;0.40;;
9280;SDS011;4679;47.966;7.958;2024-03-23T11:56:33;2.00;;;0.40;;
9280;SDS011;4679;47.966;7.958;2024-03-23T11:58:35;0.63;;;0.30;;
9280;SDS011;4679;47.966;7.958;2024-03-23T12:00:35;0.40;;;0.30;;
9280;SDS011;4679;47.966;7.958;2024-03-23T12:02:38;0.70;;;0.30;;
9280;SDS011;4679;47.966;7.958;2024-03-23T12:04:39;0.43;;;0.20;;
9280;SDS011;4679;47.966;7.958;2024-03-23T12:06:41;0.33;;;0.20;;
9280;SDS011;4679;47.966;7.958;2024-03-23T12:08:42;1.60;;;1.23;;
9280;SDS011;4679;47.966;7.958;2024-03-23T12:10:44;0.43;;;0.30;;
9280;SDS011;4679;47.966;7.958;2024-03-23T12:12:45;0.70;;;0.20;;
9280;SDS011;4679;47.966;7.958;2024-03-23T12:15:00;0.53;;;0.40;;
9280;SDS011;4679;47.966;7.958;2024-03-23T12:17:12;1.60;;;0.30;;
9280;SDS011;4679;47.966;7.958;2024-03-23T12:19:15;1.23;;;0.40;;
9280;SDS011;4679;47.966;7.958;2024-03-23T12:21:18;1.07;;;0.40;;
9280;SDS011;4679;47.966;7.958;2024-03-23T12:23:18;0.67;;;0.30;;
9280;SDS011;4679;47.966;7.958;2024-03-23T12:25:21;1.40;;;0.70;;
9280;SDS011;4679;47.966;7.958;2024-03-23T12:27:22;1.30;;;0.40;;
9280;SDS011;4679;47.966;7.958;2024-03-23T12:29:25;1.53;;;0.50;;
9280;SDS011;4679;47.966;7.958;2024-03-23T12:31:26;2.70;;;0.50;;
9280;SDS011;4679;47.966;7.958;2024-03-23T12:33:28;1.53;;;0.50;;
9280;SDS011;4679;47.966;7.958;2024-03-23T12:35:30;3.37;;;0.50;;
9280;SDS011;4679;47.966;7.958;2024-03-23T12:37:31;2.70;;;0.50;;
9280;SDS011;4679;47.966;7.958;2024-03-23T12:39:32;2.83;;;0.60;;
9280;SDS011;4679;47.966;7.958;2024-03-23T12:41:35;2.70;;;0.50;;
9280;SDS011;4679;47.966;7.958;2024-03-23T12:43:35;1.87;;;0.60;;
9280;SDS011;4679;47.966;7.958;2024-03-23T12:45:37;4.80;;;0.73;;
9280;SDS011;4679;47.966;7.958;2024-03-23T12:47:38;0.90;;;0.43;;
9280;SDS011;4679;47.966;7.958;2024-03-23T12:49:40;2.93;;;0.90;;
9280;SDS011;4679;47.966;7.958;2024-03-23T12:51:42;1.33;;;0.50;;
9280;SDS011;4679;47.966;7.958;2024-03-23T12:53:49;2.87;;;0.67;;
9280;SDS011;4679;47.966;7.958;2024-03-23T12:55:50;1.63;;;0.60;;
9280;SDS011;4679;47.966;7.958;2024-03-23T12:57:51;1.33;;;0.50;;
9280;SDS011;4679;47.966;7.958;2024-03-23T12:59:52;1.00;;;0.50;;
9280;SDS011;4679;47.966;7.958;2024-03-23T13:01:54;2.93;;;0.87;;
9280;SDS011;4679;47.966;7.958;2024-03-23T13:03:55;2.00;;;0.60;;
9280;SDS011;4679;47.966;7.958;2024-03-23T13:05:56;3.10;;;0.50;;
9280;SDS011;4679;47.966;7.958;2024-03-23T13:07:58;1.77;;;0.70;;
9280;SDS011;4679;47.966;7.958;2024-03-23T13:10:00;1.87;;;0.60;;
9280;SDS011;4679;47.966;7.958;2024-03-23T13:12:01;4.00;;;0.53;;
9280;SDS011;4679;47.966;7.958;2024-03-23T13:14:02;1.50;;;0.60;;
9280;SDS011;4679;47.966;7.958;2024-03-23T13:16:04;3.33;;;0.70;;
9280;SDS011;4679;47.966;7.958;2024-03-23T13:18:06;4.33;;;0.50;;
9280;SDS011;4679;47.966;7.958;2024-03-23T13:20:08;2.00;;;0.70;;
9280;SDS011;4679;47.966;7.958;2024-03-23T13:22:14;2.50;;;0.70;;
9280;SDS011;4679;47.966;7.958;2024-03-23T13:24:17;2.67;;;0.50;;
9280;SDS011;4679;47.966;7.958;2024-03-23T13:26:21;2.20;;;0.47;;
9280;SDS011;4679;47.966;7.958;2024-03-23T13:28:23;3.40;;;0.70;;
9280;SDS011;4679;47.966;7.958;2024-03-23T13:30:23;2.80;;;0.43;;
9280;SDS011;4679;47.966;7.958;2024-03-23T13:32:25;2.23;;;0.70;;
9280;SDS011;4679;47.966;7.958;2024-03-23T13:34:26;5.20;;;0.50;;
9280;SDS011;4679;47.966;7.958;2024-03-23T13:36:29;4.87;;;0.63;;
9280;SDS011;4679;47.966;7.958;2024-03-23T13:38:30;2.93;;;0.60;;
9280;SDS011;4679;47.966;7.958;2024-03-23T13:40:33;1.63;;;0.70;;
9280;SDS011;4679;47.966;7.958;2024-03-23T13:42:33;1.90;;;0.50;;
9280;SDS011;4679;47.966;7.958;2024-03-23T13:44:35;2.93;;;0.70;;
9280;SDS011;4679;47.966;7.958;2024-03-23T13:46:36;2.17;;;0.50;;
9280;SDS011;4679;47.966;7.958;2024-03-23T13:48:38;1.77;;;0.60;;
9280;SDS011;4679;47.966;7.958;2024-03-23T13:50:39;2.60;;;0.60;;
9280;SDS011;4679;47.966;7.958;2024-03-23T13:52:39;1.80;;;0.50;;
9280;SDS011;4679;47.966;7.958;2024-03-23T13:54:41;4.37;;;0.70;;
9280;SDS011;4679;47.966;7.958;2024-03-23T13:56:48;1.40;;;0.40;;
9280;SDS011;4679;47.966;7.958;2024-03-23T13:58:50;1.63;;;0.50;;
9280;SDS011;4679;47.966;7.958;2024-03-23T14:00:51;4.60;;;0.80;;
9280;SDS011;4679;47.966;7.958;2024-03-23T14:02:52;2.83;;;0.70;;
9280;SDS011;4679;47.966;7.958;2024-03-23T14:04:53;3.47;;;0.83;;
9280;SDS011;4679;47.966;7.958;2024-03-23T14:06:55;1.80;;;0.60;;
9280;SDS011;4679;47.966;7.958;2024-03-23T14:08:56;4.60;;;0.50;;
9280;SDS011;4679;47.966;7.958;2024-03-23T14:10:57;3.07;;;0.60;;
9280;SDS011;4679;47.966;7.958;2024-03-23T14:12:59;3.53;;;0.50;;
9280;SDS011;4679;47.966;7.958;2024-03-23T14:15:01;2.63;;;0.50;;
9280;SDS011;4679;47.966;7.958;2024-03-23T14:17:03;1.37;;;0.30;;
9280;SDS011;4679;47.966;7.958;2024-03-23T14:19:04;1.70;;;0.50;;
9280;SDS011;4679;47.966;7.958;2024-03-23T14:21:06;3.20;;;0.50;;
9280;SDS011;4679;47.966;7.958;2024-03-23T14:23:07;1.90;;;0.30;;
9280;SDS011;4679;47.966;7.958;2024-03-23T14:25:08;1.67;;;0.50;;
9280;SDS011;4679;47.966;7.958;2024-03-23T14:27:08;1.90;;;0.50;;
9280;SDS011;4679;47.966;7.958;2024-03-23T14:29:11;0.53;;;0.40;;
9280;SDS011;4679;47.966;7.958;2024-03-23T14:31:12;1.17;;;0.63;;
9280;SDS011;4679;47.966;7.958;2024-03-23T14:33:14;2.43;;;0.87;;
9280;SDS011;4679;47.966;7.958;2024-03-23T14:35:14;1.23;;;0.50;;
9280;SDS011;4679;47.966;7.958;2024-03-23T14:37:16;3.03;;;0.80;;
9280;SDS011;4679;47.966;7.958;2024-03-23T14:39:16;2.47;;;0.57;;
9280;SDS011;4679;47.966;7.958;2024-03-23T14:41:18;1.90;;;0.70;;
9280;SDS011;4679;47.966;7.958;2024-03-23T14:43:18;1.93;;;0.63;;
9280;SDS011;4679;47.966;7.958;2024-03-23T14:45:22;3.10;;;0.50;;
9280;SDS011;4679;47.966;7.958;2024-03-23T14:47:24;1.40;;;0.30;;
9280;SDS011;4679;47.966;7.958;2024-03-23T14:49:26;3.90;;;0.67;;
9280;SDS011;4679;47.966;7.958;2024-03-23T14:51:26;1.33;;;0.40;;
9280;SDS011;4679;47.966;7.958;2024-03-23T14:53:28;4.63;;;0.50;;
9280;SDS011;4679;47.966;7.958;2024-03-23T14:55:29;1.70;;;0.40;;
9280;SDS011;4679;47.966;7.958;2024-03-23T14:57:31;3.20;;;0.40;;
9280;SDS011;4679;47.966;7.958;2024-03-23T14:59:32;2.13;;;0.40;;
9280;SDS011;4679;47.966;7.958;2024-03-23T15:01:34;0.53;;;0.30;;
9280;SDS011;4679;47.966;7.958;2024-03-23T15:03:35;0.53;;;0.30;;
9280;SDS011;4679;47.966;7.958;2024-03-23T15:05:39;0.90;;;0.20;;
9280;SDS011;4679;47.966;7.958;2024-03-23T15:07:40;0.73;;;0.30;;
9280;SDS011;4679;47.966;7.958;2024-03-23T15:09:41;1.00;;;0.23;;
9280;SDS011;4679;47.966;7.958;2024-03-23T15:11:42;1.37;;;0.30;;
9280;SDS011;4679;47.966;7.958;2024-03-23T15:13:43;1.73;;;0.30;;
9280;SDS011;4679;47.966;7.958;2024-03-23T15:15:44;1.33;;;0.50;;
9280;SDS011;4679;47.966;7.958;2024-03-23T15:17:49;2.90;;;0.30;;
9280;SDS011;4679;47.966;7.958;2024-03-23T15:19:50;1.30;;;0.17;;
9280;SDS011;4679;47.966;7.958;2024-03-23T15:21:53;0.60;;;0.30;;
9280;SDS011;4679;47.966;7.958;2024-03-23T15:23:54;0.80;;;0.40;;
9280;SDS011;4679;47.966;7.958;2024-03-23T15:25:56;2.00;;;0.30;;
9280;SDS011;4679;47.966;7.958;2024-03-23T15:27:57;0.83;;;0.23;;
9280;SDS011;4679;47.966;7.958;2024-03-23T15:30:00;0.70;;;0.23;;
9280;SDS011;4679;47.966;7.958;2024-03-23T15:32:00;1.20;;;0.30;;
9280;SDS011;4679;47.966;7.958;2024-03-23T15:34:03;1.20;;;0.30;;
9280;SDS011;4679;47.966;7.958;2024-03-23T15:36:05;2.93;;;0.47;;
9280;SDS011;4679;47.966;7.958;2024-03-23T15:38:07;2.97;;;0.70;;
9280;SDS011;4679;47.966;7.958;2024-03-23T15:40:08;2.13;;;0.30;;
9280;SDS011;4679;47.966;7.958;2024-03-23T15:42:12;4.13;;;0.53;;
9280;SDS011;4679;47.966;7.958;2024-03-23T15:44:12;2.17;;;0.40;;
9280;SDS011;4679;47.966;7.958;2024-03-23T15:46:14;3.20;;;0.40;;
9280;SDS011;4679;47.966;7.958;2024-03-23T15:48:15;2.60;;;0.80;;
9280;SDS011;4679;47.966;7.958;2024-03-23T15:50:18;1.73;;;0.40;;
9280;SDS011;4679;47.966;7.958;2024-03-23T15:52:18;2.27;;;0.20;;
9280;SDS011;4679;47.966;7.958;2024-03-23T15:54:20;0.90;;;0.30;;
9280;SDS011;4679;47.966;7.958;2024-03-23T15:56:22;2.10;;;0.30;;
9280;SDS011;4679;47.966;7.958;2024-03-23T15:58:24;2.63;;;0.30;;
9280;SDS011;4679;47.966;7.958;2024-03-23T16:00:25;1.27;;;0.40;;
9280;SDS011;4679;47.966;7.958;2024-03-23T16:02:26;2.60;;;0.30;;
9280;SDS011;4679;47.966;7.958;2024-03-23T16:04:28;0.97;;;0.30;;
9280;SDS011;4679;47.966;7.958;2024-03-23T16:06:31;3.37;;;0.50;;
9280;SDS011;4679;47.966;7.958;2024-03-23T16:08:32;0.53;;;0.27;;
9280;SDS011;4679;47.966;7.958;2024-03-23T16:10:33;2.77;;;0.40;;
9280;SDS011;4679;47.966;7.958;2024-03-23T16:12:34;1.03;;;0.63;;
9280;SDS011;4679;47.966;7.958;2024-03-23T16:14:40;2.20;;;0.20;;
9280;SDS011;4679;47.966;7.958;2024-03-23T16:16:41;0.53;;;0.30;;
9280;SDS011;4679;47.966;7.958;2024-03-23T16:18:42;2.50;;;0.30;;
9280;SDS011;4679;47.966;7.958;2024-03-23T16:20:51;0.57;;;0.30;;
9280;SDS011;4679;47.966;7.958;2024-03-23T16:22:54;1.23;;;0.20;;
9280;SDS011;4679;47.966;7.958;2024-03-23T16:24:56;0.57;;;0.20;;
9280;SDS011;4679;47.966;7.958;2024-03-23T16:26:57;0.17;;;0.10;;
9280;SDS011;4679;47.966;7.958;2024-03-23T16:28:58;0.57;;;0.20;;
9280;SDS011;4679;47.966;7.958;2024-03-23T16:31:01;0.40;;;0.20;;
9280;SDS011;4679;47.966;7.958;2024-03-23T16:33:02;0.20;;;0.20;;
9280;SDS011;4679;47.966;7.958;2024-03-23T16:35:04;1.17;;;0.20;;
9280;SDS011;4679;47.966;7.958;2024-03-23T16:37:05;1.57;;;0.20;;
9280;SDS011;4679;47.966;7.958;2024-03-23T16:39:12;0.30;;;0.20;;
9280;SDS011;4679;47.966;7.958;2024-03-23T16:41:15;0.23;;;0.10;;
9280;SDS011;4679;47.966;7.958;2024-03-23T16:43:17;0.70;;;0.10;;
9280;SDS011;4679;47.966;7.958;2024-03-23T16:45:19;0.30;;;0.20;;
9280;SDS011;4679;47.966;7.958;2024-03-23T16:47:21;0.73;;;0.10;;
9280;SDS011;4679;47.966;7.958;2024-03-23T16:49:21;0.40;;;0.20;;
9280;SDS011;4679;47.966;7.958;2024-03-23T16:51:23;0.73;;;0.20;;
9280;SDS011;4679;47.966;7.958;2024-03-23T16:53:23;1.23;;;0.17;;
9280;SDS011;4679;47.966;7.958;2024-03-23T16:55:27;0.20;;;0.10;;
9280;SDS011;4679;47.966;7.958;2024-03-23T16:57:27;1.63;;;0.30;;
9280;SDS011;4679;47.966;7.958;2024-03-23T16:59:29;0.40;;;0.40;;
9280;SDS011;4679;47.966;7.958;2024-03-23T17:01:29;0.40;;;0.33;;
9280;SDS011;4679;47.966;7.958;2024-03-23T17:03:30;0.30;;;0.23;;
9280;SDS011;4679;47.966;7.958;2024-03-23T17:05:37;1.53;;;0.40;;
9280;SDS011;4679;47.966;7.958;2024-03-23T17:07:38;0.13;;;0.10;;
9280;SDS011;4679;47.966;7.958;2024-03-23T17:09:46;0.30;;;0.30;;
9280;SDS011;4679;47.966;7.958;2024-03-23T17:11:49;0.20;;;0.20;;
9280;SDS011;4679;47.966;7.958;2024-03-23T17:13:50;0.93;;;0.20;;
9280;SDS011;4679;47.966;7.958;2024-03-23T17:15:54;1.80;;;0.10;;
9280;SDS011;4679;47.966;7.958;2024-03-23T17:17:55;0.10;;;0.10;;
9280;SDS011;4679;47.966;7.958;2024-03-23T17:19:58;2.17;;;0.20;;
9280;SDS011;4679;47.966;7.958;2024-03-23T17:22:00;0.40;;;0.30;;
9280;SDS011;4679;47.966;7.958;2024-03-23T17:24:01;0.37;;;0.20;;
9280;SDS011;4679;47.966;7.958;2024-03-23T17:26:02;2.20;;;0.30;;
9280;SDS011;4679;47.966;7.958;2024-03-23T17:28:06;0.30;;;0.20;;
9280;SDS011;4679;47.966;7.958;2024-03-23T17:30:08;0.23;;;0.23;;
9280;SDS011;4679;47.966;7.958;2024-03-23T17:32:10;0.70;;;0.23;;
9280;SDS011;4679;47.966;7.958;2024-03-23T17:34:12;0.30;;;0.30;;
9280;SDS011;4679;47.966;7.958;2024-03-23T17:36:13;1.13;;;0.20;;
9280;SDS011;4679;47.966;7.958;2024-03-23T17:38:15;0.10;;;0.10;;
9280;SDS011;4679;47.966;7.958;2024-03-23T17:40:15;1.07;;;0.10;;
9280;SDS011;4679;47.966;7.958;2024-03-23T17:42:17;0.23;;;0.10;;
9280;SDS011;4679;47.966;7.958;2024-03-23T17:44:19;0.70;;;0.20;;
9280;SDS011;4679;47.966;7.958;2024-03-23T17:46:20;0.67;;;0.20;;
9280;SDS011;4679;47.966;7.958;2024-03-23T17:48:21;0.20;;;0.17;;
9280;SDS011;4679;47.966;7.958;2024-03-23T17:50:23;1.10;;;0.50;;
9280;SDS011;4679;47.966;7.958;2024-03-23T17:52:23;0.17;;;0.13;;
9280;SDS011;4679;47.966;7.958;2024-03-23T17:54:25;0.20;;;0.20;;
9280;SDS011;4679;47.966;7.958;2024-03-23T17:56:27;0.17;;;0.10;;
9280;SDS011;4679;47.966;7.958;2024-03-23T17:58:28;0.83;;;0.20;;
9280;SDS011;4679;47.966;7.958;2024-03-23T18:00:30;0.30;;;0.30;;
9280;SDS011;4679;47.966;7.958;2024-03-23T18:02:32;0.30;;;0.20;;
9280;SDS011;4679;47.966;7.958;2024-03-23T18:04:32;0.20;;;0.20;;
9280;SDS011;4679;47.966;7.958;2024-03-23T18:06:34;0.47;;;0.20;;
9280;SDS011;4679;47.966;7.958;2024-03-23T18:08:34;0.40;;;0.30;;
9280;SDS011;4679;47.966;7.958;2024-03-23T18:10:37;0.20;;;0.10;;
9280;SDS011;4679;47.966;7.958;2024-03-23T18:12:37;2.10;;;0.70;;
9280;SDS011;4679;47.966;7.958;2024-03-23T18:14:39;2.53;;;0.40;;
9280;SDS011;4679;47.966;7.958;2024-03-23T18:16:41;1.80;;;0.20;;
9280;SDS011;4679;47.966;7.958;2024-03-23T18:18:44;0.40;;;0.30;;
9280;SDS011;4679;47.966;7.958;2024-03-23T18:20:45;2.00;;;0.20;;
9280;SDS011;4679;47.966;7.958;2024-03-23T18:22:47;3.10;;;0.30;;
9280;SDS011;4679;47.966;7.958;2024-03-23T18:24:47;1.77;;;0.30;;
9280;SDS011;4679;47.966;7.958;2024-03-23T18:26:49;0.50;;;0.30;;
9280;SDS011;4679;47.966;7.958;2024-03-23T18:28:50;0.40;;;0.30;;
9280;SDS011;4679;47.966;7.958;2024-03-23T18:30:57;2.00;;;0.30;;
9280;SDS011;4679;47.966;7.958;2024-03-23T18:33:01;1.23;;;0.30;;
9280;SDS011;4679;47.966;7.958;2024-03-23T18:35:01;0.70;;;0.27;;
9280;SDS011;4679;47.966;7.958;2024-03-23T18:37:04;0.80;;;0.23;;
9280;SDS011;4679;47.966;7.958;2024-03-23T18:39:05;0.73;;;0.23;;
9280;SDS011;4679;47.966;7.958;2024-03-23T18:41:07;0.40;;;0.40;;
9280;SDS011;4679;47.966;7.958;2024-03-23T18:43:08;0.70;;;0.40;;
9280;SDS011;4679;47.966;7.958;2024-03-23T18:45:08;0.23;;;0.13;;
9280;SDS011;4679;47.966;7.958;2024-03-23T18:47:10;0.33;;;0.20;;
9280;SDS011;4679;47.966;7.958;2024-03-23T18:49:12;1.57;;;0.30;;
9280;SDS011;4679;47.966;7.958;2024-03-23T18:51:13;1.10;;;0.30;;
9280;SDS011;4679;47.966;7.958;2024-03-23T18:53:14;0.30;;;0.30;;
9280;SDS011;4679;47.966;7.958;2024-03-23T18:55:16;1.00;;;0.30;;
9280;SDS011;4679;47.966;7.958;2024-03-23T18:57:16;2.40;;;0.50;;
9280;SDS011;4679;47.966;7.958;2024-03-23T18:59:18;1.03;;;0.27;;
9280;SDS011;4679;47.966;7.958;2024-03-23T19:01:19;1.50;;;0.73;;
9280;SDS011;4679;47.966;7.958;2024-03-23T19:03:21;0.20;;;0.20;;
9280;SDS011;4679;47.966;7.958;2024-03-23T19:05:23;0.80;;;0.40;;
9280;SDS011;4679;47.966;7.958;2024-03-23T19:07:25;0.40;;;0.40;;
9280;SDS011;4679;47.966;7.958;2024-03-23T19:09:26;1.80;;;0.30;;
9280;SDS011;4679;47.966;7.958;2024-03-23T19:11:27;1.13;;;0.53;;
9280;SDS011;4679;47.966;7.958;2024-03-23T19:13:29;0.60;;;0.20;;
9280;SDS011;4679;47.966;7.958;2024-03-23T19:15:31;0.30;;;0.30;;
9280;SDS011;4679;47.966;7.958;2024-03-23T19:17:32;0.40;;;0.23;;
9280;SDS011;4679;47.966;7.958;2024-03-23T19:19:34;0.40;;;0.30;;
9280;SDS011;4679;47.966;7.958;2024-03-23T19:21:36;1.70;;;0.30;;
9280;SDS011;4679;47.966;7.958;2024-03-23T19:23:37;0.53;;;0.43;;
9280;SDS011;4679;47.966;7.958;2024-03-23T19:25:38;0.70;;;0.40;;
9280;SDS011;4679;47.966;7.958;2024-03-23T19:27:40;0.90;;;0.40;;
9280;SDS011;4679;47.966;7.958;2024-03-23T19:29:41;0.30;;;0.20;;
9280;SDS011;4679;47.966;7.958;2024-03-23T19:31:43;0.83;;;0.40;;
9280;SDS011;4679;47.966;7.958;2024-03-23T19:33:44;1.60;;;0.10;;
9280;SDS011;4679;47.966;7.958;2024-03-23T19:35:45;0.40;;;0.10;;
9280;SDS011;4679;47.966;7.958;2024-03-23T19:37:49;0.87;;;0.20;;
9280;SDS011;4679;47.966;7.958;2024-03-23T19:39:51;0.07;;;0.07;;
9280;SDS011;4679;47.966;7.958;2024-03-23T19:41:51;0.03;;;0.00;;
9280;SDS011;4679;47.966;7.958;2024-03-23T19:43:53;1.53;;;0.03;;
9280;SDS011;4679;47.966;7.958;2024-03-23T19:45:53;0.10;;;0.00;;
9280;SDS011;4679;47.966;7.958;2024-03-23T19:47:55;1.00;;;0.10;;
9280;SDS011;4679;47.966;7.958;2024-03-23T19:49:56;0.10;;;0.00;;
9280;SDS011;4679;47.966;7.958;2024-03-23T19:51:57;0.00;;;0.00;;
9280;SDS011;4679;47.966;7.958;2024-03-23T19:53:59;0.17;;;0.10;;
9280;SDS011;4679;47.966;7.958;2024-03-23T19:56:01;0.03;;;0.00;;
9280;SDS011;4679;47.966;7.958;2024-03-23T19:58:04;0.03;;;0.00;;
9280;SDS011;4679;47.966;7.958;2024-03-23T20:00:06;0.30;;;0.00;;
9280;SDS011;4679;47.966;7.958;2024-03-23T20:02:07;0.10;;;0.10;;
9280;SDS011;4679;47.966;7.958;2024-03-23T20:04:09;0.37;;;0.00;;
9280;SDS011;4679;47.966;7.958;2024-03-23T20:06:10;0.17;;;0.10;;
9280;SDS011;4679;47.966;7.958;2024-03-23T20:08:11;0.13;;;0.10;;
9280;SDS011;4679;47.966;7.958;2024-03-23T20:10:13;0.00;;;0.00;;